Terminal Aerodrome Forecast
Issued by NWS

Home | Current Version | Previous Version | Text Only | Print | Product List | Glossary On
Versions: 1 2 3 4 5 6 7 8 9 10 11 12 13
000
FTUS45 KMSO 041720
TAFSMN
TAF
KSMN 041720Z 0418/0518 01006KT P6SM FEW120
     FM042000 34007G15KT P6SM VCTS SCT100CB
     FM050000 VRB05KT P6SM FEW100
      AMD LTD TO CLD VIS AND WIND=

USA.gov is the U.S. government's official web portal to all federal, state and local government web resources and services.